Time;durP1;ratioP1;P1;durP2;ratioP2;P2;SDS_P1;SDS_P2;PMS_P1;PMS_P2;Temp;Humidity;BMP_temperature;BMP_pressure;BME280_temperature;BME280_humidity;BME280_pressure;Samples;Min_cycle;Max_cycle;Signal;HPM_P1;HPM_P2
2020/12/05 00:00:22;;;;;;;8.73;5.43;;;6.90;60.90;;;;;;2085833;28;20570;-72
2020/12/05 00:01:22;;;;;;;8.20;5.85;;;6.90;61.00;;;;;;2084503;28;20060;-72
2020/12/05 00:02:23;;;;;;;13.00;6.35;;;6.90;61.10;;;;;;2097302;28;20389;-73
2020/12/05 00:03:23;;;;;;;7.07;6.13;;;6.80;61.20;;;;;;2090417;28;20052;-73
2020/12/05 00:04:24;;;;;;;9.77;5.82;;;6.80;61.30;;;;;;2086965;28;20037;-72
2020/12/05 00:05:24;;;;;;;7.20;6.07;;;6.80;61.40;;;;;;2099839;28;20354;-72
2020/12/05 00:06:25;;;;;;;7.95;6.30;;;6.90;61.60;;;;;;2096860;28;20020;-73
2020/12/05 00:07:26;;;;;;;8.38;5.95;;;6.80;61.60;;;;;;2098348;28;20051;-72
2020/12/05 00:08:27;;;;;;;7.38;5.60;;;6.80;61.80;;;;;;2098863;28;20354;-72
2020/12/05 00:09:27;;;;;;;7.45;5.65;;;6.90;61.80;;;;;;2098392;28;20028;-73
2020/12/05 00:10:29;;;;;;;9.40;6.03;;;6.90;61.90;;;;;;2097695;28;20082;-73
2020/12/05 00:11:30;;;;;;;7.35;6.15;;;6.90;62.00;;;;;;2098692;28;20024;-73
2020/12/05 00:12:30;;;;;;;8.00;5.82;;;6.90;62.20;;;;;;2098661;28;20111;-72
2020/12/05 00:13:31;;;;;;;7.85;5.57;;;6.90;62.30;;;;;;2099482;28;20091;-72
2020/12/05 00:14:31;;;;;;;7.70;5.68;;;6.90;62.30;;;;;;2099267;28;20485;-71
2020/12/05 00:15:32;;;;;;;7.70;6.20;;;6.90;62.40;;;;;;2098496;28;20032;-72
2020/12/05 00:16:32;;;;;;;6.72;6.00;;;6.90;62.50;;;;;;2088706;28;20487;-72
2020/12/05 00:17:33;;;;;;;8.85;5.90;;;6.90;62.60;;;;;;2089996;28;20294;-74
2020/12/05 00:18:33;;;;;;;7.20;6.30;;;6.90;62.70;;;;;;2098196;28;20502;-74
2020/12/05 00:19:34;;;;;;;7.68;6.45;;;6.90;62.70;;;;;;2097024;28;20032;-73
2020/12/05 00:20:35;;;;;;;6.68;5.63;;;7.00;62.80;;;;;;2098638;28;20032;-72
2020/12/05 00:21:35;;;;;;;9.02;6.47;;;7.00;62.90;;;;;;2100200;28;20028;-72
2020/12/05 00:22:36;;;;;;;8.13;5.95;;;7.00;62.90;;;;;;2100559;28;20032;-72
2020/12/05 00:23:36;;;;;;;7.93;6.20;;;7.00;63.00;;;;;;2091919;28;20047;-72
2020/12/05 00:24:37;;;;;;;7.30;5.40;;;7.00;62.80;;;;;;2091333;28;20104;-72
2020/12/05 00:25:37;;;;;;;8.55;6.13;;;7.00;62.80;;;;;;2092317;28;20050;-73
2020/12/05 00:26:38;;;;;;;6.32;5.72;;;7.00;63.50;;;;;;2100520;28;20023;-73
2020/12/05 00:27:38;;;;;;;6.88;5.85;;;7.00;62.80;;;;;;2099613;28;20032;-73
2020/12/05 00:28:39;;;;;;;6.88;5.55;;;7.00;62.80;;;;;;2099443;28;20028;-73
2020/12/05 00:29:39;;;;;;;8.35;5.70;;;7.00;62.90;;;;;;2099971;28;20028;-73
2020/12/05 00:30:40;;;;;;;9.20;5.93;;;7.00;62.80;;;;;;2100351;28;20056;-72
2020/12/05 00:31:40;;;;;;;8.13;6.15;;;7.00;62.90;;;;;;2100057;28;20093;-72
2020/12/05 00:32:41;;;;;;;7.28;5.45;;;7.00;63.00;;;;;;2099933;28;20306;-72
2020/12/05 00:33:42;;;;;;;8.02;6.10;;;7.10;63.10;;;;;;2090484;28;20092;-73
2020/12/05 00:34:43;;;;;;;9.77;6.55;;;7.10;63.10;;;;;;2090362;28;20044;-73
2020/12/05 00:35:43;;;;;;;7.03;5.53;;;7.10;63.10;;;;;;2100215;28;20024;-73
2020/12/05 00:36:44;;;;;;;6.97;6.00;;;7.10;63.10;;;;;;2100385;28;20024;-73
2020/12/05 00:37:45;;;;;;;7.05;6.10;;;7.10;63.10;;;;;;2091211;28;20035;-73
2020/12/05 00:38:46;;;;;;;6.75;5.50;;;7.10;63.20;;;;;;2090126;28;20067;-73
2020/12/05 00:39:46;;;;;;;9.05;6.05;;;7.10;63.10;;;;;;2091156;28;20070;-74
2020/12/05 00:40:47;;;;;;;5.85;5.25;;;7.10;63.10;;;;;;2090943;28;20037;-74
2020/12/05 00:41:52;;;;;;;6.85;5.65;;;7.10;63.20;;;;;;2099256;28;20025;-74
2020/12/05 00:42:53;;;;;;;6.82;5.70;;;7.10;63.30;;;;;;2100747;28;20028;-73
2020/12/05 00:43:53;;;;;;;8.77;5.97;;;7.10;63.30;;;;;;2100233;28;20454;-73
2020/12/05 00:44:54;;;;;;;6.43;5.80;;;7.10;63.30;;;;;;2099188;28;20280;-74
2020/12/05 00:45:54;;;;;;;7.13;5.68;;;7.10;63.30;;;;;;2099401;28;20047;-73
2020/12/05 00:46:55;;;;;;;5.97;5.40;;;7.10;63.30;;;;;;2100141;28;20040;-73
2020/12/05 00:47:56;;;;;;;6.78;5.53;;;7.10;63.40;;;;;;2100232;28;20379;-73
2020/12/05 00:48:56;;;;;;;6.63;6.03;;;7.10;63.40;;;;;;2099559;28;20453;-72
2020/12/05 00:49:57;;;;;;;7.45;5.85;;;7.20;63.50;;;;;;2099751;28;20024;-73
2020/12/05 00:50:58;;;;;;;6.47;5.80;;;7.20;63.50;;;;;;2100192;28;20302;-73
2020/12/05 00:51:58;;;;;;;7.35;5.70;;;7.20;63.50;;;;;;2100725;28;20046;-72
2020/12/05 00:52:59;;;;;;;8.07;6.35;;;7.20;63.50;;;;;;2099833;28;20058;-73
2020/12/05 00:53:59;;;;;;;7.65;5.90;;;7.20;63.60;;;;;;2099639;28;20028;-73
2020/12/05 00:55:00;;;;;;;8.63;5.82;;;7.20;63.60;;;;;;2101464;28;20071;-73
2020/12/05 00:56:00;;;;;;;7.25;5.40;;;7.20;63.70;;;;;;2099645;28;20016;-73
2020/12/05 00:57:01;;;;;;;8.48;6.07;;;7.30;63.80;;;;;;2100348;28;20036;-71
2020/12/05 00:58:01;;;;;;;6.97;5.70;;;7.20;63.80;;;;;;2100843;28;20024;-73
2020/12/05 00:59:02;;;;;;;7.80;5.68;;;7.20;63.80;;;;;;2098351;28;20032;-71
2020/12/05 01:00:05;;;;;;;5.78;5.25;;;7.30;63.90;;;;;;2100215;28;20078;-73
2020/12/05 01:01:06;;;;;;;7.20;5.68;;;7.30;63.90;;;;;;2099160;28;20395;-72
2020/12/05 01:02:06;;;;;;;6.80;5.43;;;7.30;63.90;;;;;;2099611;28;20119;-73
2020/12/05 01:03:07;;;;;;;6.70;5.75;;;7.30;63.90;;;;;;2099483;28;20435;-73
2020/12/05 01:04:08;;;;;;;7.35;5.82;;;7.30;64.00;;;;;;2100293;28;20393;-72
2020/12/05 01:05:08;;;;;;;6.45;5.43;;;7.30;64.00;;;;;;2100375;28;20217;-71
2020/12/05 01:06:13;;;;;;;6.63;5.28;;;7.30;63.90;;;;;;2100935;28;20032;-72
2020/12/05 01:07:13;;;;;;;6.40;5.65;;;7.30;64.00;;;;;;2099622;28;20299;-72
2020/12/05 01:08:14;;;;;;;7.00;6.15;;;7.40;64.10;;;;;;2100103;28;20116;-71
2020/12/05 01:09:15;;;;;;;6.22;5.63;;;7.40;64.10;;;;;;2098802;28;20032;-72
2020/12/05 01:10:15;;;;;;;6.78;6.18;;;7.40;64.10;;;;;;2100395;28;20478;-71
2020/12/05 01:11:19;;;;;;;7.07;6.38;;;7.40;64.10;;;;;;2098931;28;20024;-71
2020/12/05 01:12:20;;;;;;;6.07;5.07;;;7.40;64.20;;;;;;2098969;28;20676;-72
2020/12/05 01:13:20;;;;;;;8.65;5.82;;;7.40;64.10;;;;;;2091744;28;20451;-71
2020/12/05 01:14:21;;;;;;;6.28;5.50;;;7.40;64.00;;;;;;2091261;28;20025;-72
2020/12/05 01:15:22;;;;;;;6.93;5.65;;;7.40;63.90;;;;;;2090661;28;20032;-73
2020/12/05 01:16:23;;;;;;;7.20;5.80;;;7.50;64.00;;;;;;2083326;28;20111;-74
2020/12/05 01:17:24;;;;;;;6.13;5.53;;;7.40;63.80;;;;;;2084562;28;20519;-73
2020/12/05 01:18:25;;;;;;;8.32;6.45;;;7.40;63.80;;;;;;2084228;28;20029;-73
2020/12/05 01:19:25;;;;;;;5.97;5.38;;;7.50;63.80;;;;;;2084729;28;20035;-72
2020/12/05 01:20:26;;;;;;;9.13;5.63;;;7.50;63.80;;;;;;2084691;28;20014;-73
2020/12/05 01:21:26;;;;;;;7.55;5.78;;;7.50;63.80;;;;;;2084113;28;20341;-73
2020/12/05 01:22:27;;;;;;;6.95;5.60;;;7.50;63.80;;;;;;2084658;28;20436;-73
2020/12/05 01:23:28;;;;;;;7.50;6.20;;;7.50;63.80;;;;;;2083629;28;20021;-73
2020/12/05 01:24:28;;;;;;;7.50;6.07;;;7.50;63.80;;;;;;2084573;28;20025;-73
2020/12/05 01:25:29;;;;;;;6.88;5.60;;;7.50;63.80;;;;;;2085018;28;20047;-73
2020/12/05 01:26:29;;;;;;;6.53;5.72;;;7.50;63.80;;;;;;2083965;28;20033;-72
2020/12/05 01:27:30;;;;;;;7.25;6.38;;;7.50;63.70;;;;;;2075694;28;20057;-72
2020/12/05 01:28:31;;;;;;;7.07;6.38;;;7.50;63.70;;;;;;2074508;28;20305;-73
2020/12/05 01:29:32;;;;;;;6.60;5.78;;;7.50;63.70;;;;;;2084257;28;20478;-72
2020/12/05 01:30:32;;;;;;;7.30;6.10;;;7.50;63.70;;;;;;2084515;28;20033;-72
2020/12/05 01:31:33;;;;;;;6.10;5.50;;;7.50;63.60;;;;;;2083858;28;20060;-72
2020/12/05 01:32:34;;;;;;;7.15;6.03;;;7.50;63.60;;;;;;2083466;28;20391;-73
2020/12/05 01:33:34;;;;;;;6.63;5.90;;;7.50;63.60;;;;;;2084412;28;20059;-72
2020/12/05 01:34:35;;;;;;;7.10;6.18;;;7.50;63.60;;;;;;2083914;28;20025;-72
2020/12/05 01:35:35;;;;;;;7.40;6.70;;;7.50;63.50;;;;;;2084031;28;20021;-73
2020/12/05 01:36:36;;;;;;;9.10;6.35;;;7.50;63.60;;;;;;2085553;28;20025;-72
2020/12/05 01:37:37;;;;;;;6.05;5.43;;;7.50;63.60;;;;;;2084085;28;20477;-73
2020/12/05 01:38:37;;;;;;;6.07;5.25;;;7.50;63.60;;;;;;2083087;28;20033;-72
2020/12/05 01:39:38;;;;;;;6.60;5.68;;;7.50;63.60;;;;;;2084512;28;20021;-72
2020/12/05 01:40:38;;;;;;;7.07;5.55;;;7.50;63.50;;;;;;2083716;28;20095;-72
2020/12/05 01:41:39;;;;;;;7.55;5.15;;;7.50;63.40;;;;;;2084292;28;20047;-72
2020/12/05 01:42:40;;;;;;;6.32;5.50;;;7.50;63.30;;;;;;2084312;28;20117;-72
2020/12/05 01:43:42;;;;;;;6.28;5.65;;;7.50;63.30;;;;;;2083411;28;20235;-73
2020/12/05 01:44:42;;;;;;;5.65;5.15;;;7.50;63.30;;;;;;2084004;28;20032;-73
2020/12/05 01:45:43;;;;;;;7.47;6.13;;;7.50;63.30;;;;;;2084215;28;20031;-72
2020/12/05 01:46:44;;;;;;;6.28;5.53;;;7.50;63.30;;;;;;2083230;28;20037;-73
2020/12/05 01:47:44;;;;;;;6.97;5.80;;;7.50;63.30;;;;;;2073286;28;20527;-72
2020/12/05 01:48:45;;;;;;;8.00;6.10;;;7.50;63.30;;;;;;2074192;28;20026;-72
2020/12/05 01:49:45;;;;;;;6.80;6.10;;;7.50;63.30;;;;;;2084169;28;20021;-73
2020/12/05 01:50:48;;;;;;;5.72;5.13;;;7.50;63.30;;;;;;2083852;28;20040;-73
2020/12/05 01:51:49;;;;;;;6.55;5.72;;;7.50;63.30;;;;;;2075484;28;20033;-73
2020/12/05 01:52:50;;;;;;;6.60;5.43;;;7.40;63.20;;;;;;2074048;28;20030;-73
2020/12/05 01:53:51;;;;;;;8.23;6.40;;;7.40;63.20;;;;;;2083438;28;20033;-73
2020/12/05 01:54:51;;;;;;;8.75;6.22;;;7.40;63.30;;;;;;2084542;28;20024;-73
2020/12/05 01:55:52;;;;;;;8.82;6.47;;;7.40;63.30;;;;;;2084397;28;20040;-72
2020/12/05 01:57:00;;;;;;;9.82;6.45;;;7.40;63.30;;;;;;2083958;28;20033;-72
2020/12/05 01:58:01;;;;;;;6.28;5.68;;;7.40;63.60;;;;;;2075866;28;20026;-73
2020/12/05 01:59:02;;;;;;;11.25;6.75;;;7.40;63.50;;;;;;2074964;28;20092;-72
2020/12/05 02:00:05;;;;;;;7.03;6.22;;;7.40;63.60;;;;;;2083805;28;20040;-73
2020/12/05 02:01:08;;;;;;;6.82;5.85;;;7.40;63.70;;;;;;2083736;28;20022;-72
2020/12/05 02:02:09;;;;;;;7.43;6.15;;;7.40;63.60;;;;;;2084184;28;20009;-72
2020/12/05 02:03:12;;;;;;;6.45;5.88;;;7.40;63.60;;;;;;2084020;28;20033;-73
2020/12/05 02:04:12;;;;;;;6.82;5.93;;;7.40;63.60;;;;;;2084249;28;20060;-72
2020/12/05 02:05:33;;;;;;;6.80;6.10;;;7.40;63.70;;;;;;2084222;28;20120;-73
2020/12/05 02:07:06;;;;;;;7.80;6.00;;;7.40;63.80;;;;;;2075348;28;20026;-73
2020/12/05 02:08:13;;;;;;;7.38;5.90;;;7.40;63.90;;;;;;2079889;28;20052;-73
2020/12/05 02:09:20;;;;;;;6.80;5.55;;;7.40;64.30;;;;;;2083299;28;20048;-73
2020/12/05 02:10:26;;;;;;;7.15;5.72;;;7.40;63.60;;;;;;2084070;28;20332;-73
2020/12/05 02:11:32;;;;;;;7.38;5.60;;;7.40;63.60;;;;;;2083333;28;20028;-73
2020/12/05 02:12:47;;;;;;;6.85;5.95;;;7.40;63.60;;;;;;2083652;28;20026;-73
2020/12/05 02:13:50;;;;;;;6.03;5.43;;;7.40;63.70;;;;;;2082918;28;20106;-73
2020/12/05 02:14:59;;;;;;;6.85;6.13;;;7.40;63.60;;;;;;2083514;28;20467;-73
2020/12/05 02:15:59;;;;;;;6.93;6.00;;;7.40;63.60;;;;;;2082876;28;20033;-73
2020/12/05 02:17:04;;;;;;;6.80;5.93;;;7.40;63.60;;;;;;2083630;28;20246;-73
2020/12/05 02:18:07;;;;;;;6.65;6.00;;;7.40;63.70;;;;;;2084091;28;20029;-73
2020/12/05 02:19:11;;;;;;;6.72;6.10;;;7.40;63.80;;;;;;2083702;28;20168;-73
2020/12/05 02:20:12;;;;;;;6.90;5.80;;;7.40;63.90;;;;;;2084079;28;20029;-73
2020/12/05 02:21:15;;;;;;;6.97;5.82;;;7.40;63.90;;;;;;2083869;28;20024;-73
2020/12/05 02:22:24;;;;;;;7.38;6.15;;;7.40;64.00;;;;;;2083768;28;20021;-73
2020/12/05 02:23:25;;;;;;;7.53;5.80;;;7.40;64.10;;;;;;2083255;28;20521;-73
2020/12/05 02:24:25;;;;;;;6.57;5.93;;;7.40;64.10;;;;;;2075604;28;20087;-72
2020/12/05 02:25:26;;;;;;;6.53;5.65;;;7.40;64.20;;;;;;2075367;28;20097;-73
2020/12/05 02:26:27;;;;;;;7.63;6.13;;;7.40;64.30;;;;;;2083402;28;20475;-73
2020/12/05 02:27:30;;;;;;;7.78;5.90;;;7.40;64.30;;;;;;2075209;28;20032;-73
2020/12/05 02:28:32;;;;;;;7.47;5.53;;;7.40;64.30;;;;;;2075105;28;20013;-73
2020/12/05 02:29:36;;;;;;;6.40;5.80;;;7.40;64.30;;;;;;2082992;28;20021;-73
2020/12/05 02:30:36;;;;;;;7.13;6.43;;;7.40;64.20;;;;;;2083863;28;20028;-73
2020/12/05 02:31:38;;;;;;;6.72;5.72;;;7.40;64.20;;;;;;2081840;28;20013;-73
2020/12/05 02:32:39;;;;;;;9.57;6.95;;;7.40;64.10;;;;;;2083586;28;20112;-73
2020/12/05 02:33:40;;;;;;;8.48;6.75;;;7.40;64.20;;;;;;2082875;28;20029;-72
2020/12/05 02:34:41;;;;;;;10.40;6.82;;;7.40;64.30;;;;;;2082947;28;20040;-73
2020/12/05 02:35:41;;;;;;;8.18;7.15;;;7.40;64.50;;;;;;2083442;28;20410;-72
2020/12/05 02:36:42;;;;;;;8.70;7.22;;;7.40;64.60;;;;;;2082274;28;20695;-73
2020/12/05 02:37:45;;;;;;;8.70;6.93;;;7.40;64.80;;;;;;2083082;28;20033;-72
2020/12/05 02:39:09;;;;;;;9.55;7.30;;;7.40;64.90;;;;;;2083050;28;20493;-72
2020/12/05 02:40:10;;;;;;;7.43;6.68;;;7.40;65.60;;;;;;2084294;28;20117;-73
2020/12/05 02:41:10;;;;;;;9.73;6.82;;;7.40;65.30;;;;;;2074707;28;20084;-73
2020/12/05 02:42:12;;;;;;;12.10;7.32;;;7.40;65.30;;;;;;2074975;28;20108;-73
2020/12/05 02:43:13;;;;;;;9.82;7.57;;;7.40;65.40;;;;;;2083547;28;20074;-72
2020/12/05 02:44:14;;;;;;;8.32;6.97;;;7.40;65.40;;;;;;2082432;28;20843;-72
2020/12/05 02:45:15;;;;;;;10.05;6.88;;;7.40;65.60;;;;;;2083444;28;20048;-73
2020/12/05 02:46:16;;;;;;;8.48;7.32;;;7.40;65.70;;;;;;2082976;28;20035;-73
2020/12/05 02:47:17;;;;;;;9.00;6.68;;;7.50;65.80;;;;;;2083652;28;20044;-72
2020/12/05 02:48:18;;;;;;;7.72;6.60;;;7.50;65.80;;;;;;2084201;28;20060;-72
2020/12/05 02:49:18;;;;;;;9.50;7.60;;;7.50;65.80;;;;;;2082778;28;20460;-73
2020/12/05 02:50:19;;;;;;;9.35;6.97;;;7.50;65.90;;;;;;2083335;28;20425;-72
2020/12/05 02:51:19;;;;;;;12.45;6.93;;;7.50;66.00;;;;;;2082752;28;20462;-73
2020/12/05 02:52:20;;;;;;;8.98;6.45;;;7.50;66.70;;;;;;2083193;28;20524;-72
2020/12/05 02:53:20;;;;;;;11.70;6.75;;;7.50;66.10;;;;;;2081841;28;20091;-72
2020/12/05 02:54:21;;;;;;;11.13;6.85;;;7.50;66.10;;;;;;2084106;28;20032;-73
2020/12/05 02:55:21;;;;;;;8.93;6.05;;;7.50;66.20;;;;;;2074593;28;20029;-73
2020/12/05 02:56:23;;;;;;;8.90;7.13;;;7.50;66.20;;;;;;2074676;28;20061;-73
2020/12/05 02:57:23;;;;;;;10.55;6.38;;;7.50;66.90;;;;;;2074758;28;20072;-73
2020/12/05 02:58:24;;;;;;;10.32;6.30;;;7.50;66.20;;;;;;2075253;28;20488;-72
2020/12/05 02:59:26;;;;;;;8.00;6.22;;;7.60;66.30;;;;;;2081966;28;20652;-72
2020/12/05 03:00:26;;;;;;;10.90;6.43;;;7.60;66.30;;;;;;2084381;28;20025;-73
2020/12/05 03:01:27;;;;;;;11.93;6.60;;;7.60;66.30;;;;;;2082229;28;20407;-73
2020/12/05 03:02:27;;;;;;;8.57;6.63;;;7.60;66.30;;;;;;2083797;28;20067;-73
2020/12/05 03:03:28;;;;;;;8.35;6.53;;;7.60;66.30;;;;;;2084030;28;20021;-73
2020/12/05 03:04:28;;;;;;;11.25;6.20;;;7.60;66.30;;;;;;2082943;28;20025;-73
2020/12/05 03:05:29;;;;;;;7.90;6.30;;;7.60;66.40;;;;;;2083870;28;20043;-72
2020/12/05 03:06:30;;;;;;;8.93;6.80;;;7.60;66.40;;;;;;2083681;28;20037;-74
2020/12/05 03:07:30;;;;;;;9.75;6.63;;;7.60;66.40;;;;;;2083468;28;20045;-73
2020/12/05 03:08:31;;;;;;;11.00;6.38;;;7.60;66.30;;;;;;2083822;28;20410;-73
2020/12/05 03:09:33;;;;;;;8.50;5.95;;;7.60;66.30;;;;;;2084147;28;20052;-73
2020/12/05 03:10:33;;;;;;;10.18;6.20;;;7.70;66.40;;;;;;2074651;28;20098;-73
2020/12/05 03:11:34;;;;;;;11.73;7.28;;;7.70;66.30;;;;;;2075519;28;20086;-73
2020/12/05 03:12:34;;;;;;;11.35;6.18;;;7.70;66.30;;;;;;2083877;28;20114;-72
2020/12/05 03:13:35;;;;;;;11.30;6.43;;;7.70;66.40;;;;;;2083229;28;20029;-72
2020/12/05 03:14:35;;;;;;;10.57;6.68;;;7.70;66.30;;;;;;2084233;28;20021;-73
2020/12/05 03:15:36;;;;;;;11.13;6.50;;;7.70;66.30;;;;;;2083495;28;20041;-72
2020/12/05 03:16:37;;;;;;;8.40;6.20;;;7.70;66.20;;;;;;2082230;28;20090;-73
2020/12/05 03:17:37;;;;;;;13.43;6.72;;;7.70;66.20;;;;;;2083517;28;20025;-72
2020/12/05 03:18:38;;;;;;;11.05;7.00;;;7.70;66.10;;;;;;2082898;28;20525;-72
2020/12/05 03:19:38;;;;;;;14.90;7.22;;;7.80;66.20;;;;;;2083052;28;20065;-73
2020/12/05 03:20:39;;;;;;;10.32;6.18;;;7.80;66.10;;;;;;2083674;28;20028;-72
2020/12/05 03:21:39;;;;;;;10.25;6.60;;;7.80;66.00;;;;;;2073938;28;20038;-73
2020/12/05 03:22:40;;;;;;;8.00;6.63;;;7.80;66.00;;;;;;2074732;28;20083;-72
2020/12/05 03:23:45;;;;;;;10.60;6.32;;;7.80;66.10;;;;;;2083504;28;20035;-73
2020/12/05 03:24:46;;;;;;;13.05;5.97;;;7.80;66.00;;;;;;2082868;28;20029;-72
2020/12/05 03:25:46;;;;;;;8.73;6.47;;;7.80;66.00;;;;;;2083774;28;20480;-73
2020/12/05 03:26:47;;;;;;;9.60;6.35;;;7.80;66.00;;;;;;2076275;28;20034;-73
2020/12/05 03:27:47;;;;;;;12.38;6.65;;;7.80;66.00;;;;;;2075903;28;20055;-73
2020/12/05 03:28:48;;;;;;;16.95;7.00;;;7.80;66.00;;;;;;2074099;28;20059;-72
2020/12/05 03:29:51;;;;;;;14.23;6.50;;;7.80;66.00;;;;;;2075039;28;20033;-72
2020/12/05 03:30:52;;;;;;;14.40;6.93;;;7.80;66.00;;;;;;2083113;28;20455;-72
2020/12/05 03:32:14;;;;;;;17.20;7.35;;;7.80;66.00;;;;;;2082387;28;20029;-72
2020/12/05 03:33:15;;;;;;;14.68;6.70;;;7.80;66.00;;;;;;2074578;28;20025;-72
2020/12/05 03:34:16;;;;;;;13.05;6.65;;;7.80;66.00;;;;;;2074160;28;20051;-72
2020/12/05 03:35:17;;;;;;;15.07;7.30;;;7.80;66.00;;;;;;2082796;28;20049;-72
2020/12/05 03:36:17;;;;;;;13.40;6.50;;;7.80;66.00;;;;;;2083461;28;20028;-73
2020/12/05 03:37:19;;;;;;;17.02;7.50;;;7.80;66.00;;;;;;2083016;28;20049;-73
2020/12/05 03:38:19;;;;;;;12.65;6.97;;;7.80;66.00;;;;;;2083627;28;20444;-72
2020/12/05 03:39:20;;;;;;;12.65;6.93;;;7.80;66.00;;;;;;2083917;28;20114;-73
2020/12/05 03:40:20;;;;;;;13.57;7.00;;;7.80;66.00;;;;;;2082795;28;20036;-73
2020/12/05 03:41:23;;;;;;;11.90;6.78;;;7.80;66.00;;;;;;2083499;28;20026;-73
2020/12/05 03:42:23;;;;;;;10.77;6.82;;;7.80;66.00;;;;;;2083870;28;20063;-73
2020/12/05 03:43:24;;;;;;;11.20;6.68;;;7.80;66.00;;;;;;2082884;28;20033;-73
2020/12/05 03:44:24;;;;;;;12.40;6.78;;;7.80;66.00;;;;;;2075799;28;20032;-72
2020/12/05 03:45:25;;;;;;;12.85;6.45;;;7.80;66.00;;;;;;2082847;28;20132;-72
2020/12/05 03:46:26;;;;;;;13.13;7.40;;;7.70;66.00;;;;;;2082430;28;20033;-72
2020/12/05 03:47:26;;;;;;;12.82;7.35;;;7.70;66.00;;;;;;2083858;28;20508;-72
2020/12/05 03:48:27;;;;;;;10.63;6.75;;;7.70;65.90;;;;;;2083238;28;20041;-72
2020/12/05 03:49:33;;;;;;;14.10;6.88;;;7.70;65.90;;;;;;2082425;28;20014;-73
2020/12/05 03:50:34;;;;;;;13.73;6.90;;;7.70;66.00;;;;;;2082963;28;20053;-72
2020/12/05 03:51:35;;;;;;;13.68;6.90;;;7.70;66.00;;;;;;2084073;28;20417;-72
2020/12/05 03:52:35;;;;;;;11.73;6.78;;;7.70;65.90;;;;;;2083051;28;20502;-73
2020/12/05 03:53:36;;;;;;;13.15;6.85;;;7.70;66.00;;;;;;2083728;28;20037;-72
2020/12/05 03:54:36;;;;;;;16.20;7.07;;;7.70;65.90;;;;;;2083696;28;20544;-73
2020/12/05 03:55:37;;;;;;;12.63;7.18;;;7.70;65.90;;;;;;2084300;28;20443;-72
2020/12/05 03:56:37;;;;;;;11.32;6.32;;;7.70;65.90;;;;;;2085215;28;20495;-72
2020/12/05 03:57:38;;;;;;;13.00;6.25;;;7.70;65.90;;;;;;2076763;28;20036;-72
2020/12/05 03:58:39;;;;;;;13.85;7.22;;;7.60;65.90;;;;;;2075196;28;20203;-72
2020/12/05 03:59:40;;;;;;;10.27;6.93;;;7.60;65.90;;;;;;2085195;28;20108;-73
2020/12/05 04:00:40;;;;;;;11.63;6.97;;;7.60;65.90;;;;;;2084956;28;20037;-72
2020/12/05 04:01:41;;;;;;;12.10;7.32;;;7.60;65.90;;;;;;2084532;28;20051;-72
2020/12/05 04:02:41;;;;;;;11.77;7.00;;;7.60;65.90;;;;;;2085330;28;20029;-72
2020/12/05 04:03:42;;;;;;;16.77;7.55;;;7.60;65.90;;;;;;2084424;28;20039;-72
2020/12/05 04:04:42;;;;;;;8.85;6.32;;;7.60;65.90;;;;;;2084177;28;20040;-72
2020/12/05 04:05:43;;;;;;;7.60;6.13;;;7.60;65.90;;;;;;2084160;28;20021;-72
2020/12/05 04:06:43;;;;;;;11.93;6.78;;;7.60;65.90;;;;;;2085303;28;20033;-72
2020/12/05 04:07:44;;;;;;;9.38;6.60;;;7.50;65.80;;;;;;2085082;28;20132;-73
2020/12/05 04:08:45;;;;;;;10.98;6.70;;;7.50;65.80;;;;;;2085538;28;20325;-73
2020/12/05 04:09:45;;;;;;;11.05;6.82;;;7.50;65.80;;;;;;2084646;28;20025;-72
2020/12/05 04:10:46;;;;;;;13.98;6.60;;;7.50;65.80;;;;;;2085073;28;20029;-73
2020/12/05 04:11:47;;;;;;;12.52;7.03;;;7.50;65.80;;;;;;2085795;28;20159;-73
2020/12/05 04:12:47;;;;;;;10.05;6.95;;;7.50;65.80;;;;;;2084726;28;20033;-72
2020/12/05 04:13:48;;;;;;;10.02;6.82;;;7.50;65.80;;;;;;2084998;28;20036;-72
2020/12/05 04:14:48;;;;;;;7.78;6.32;;;7.50;65.80;;;;;;2077168;28;20029;-72
2020/12/05 04:15:49;;;;;;;8.90;6.55;;;7.50;65.80;;;;;;2075601;28;20337;-73
2020/12/05 04:16:49;;;;;;;9.15;6.60;;;7.50;65.80;;;;;;2084249;28;20503;-72
2020/12/05 04:17:50;;;;;;;10.15;6.78;;;7.50;65.90;;;;;;2085464;28;20091;-72
2020/12/05 04:18:50;;;;;;;8.98;6.20;;;7.40;65.90;;;;;;2084056;28;20048;-72
2020/12/05 04:19:51;;;;;;;9.65;6.50;;;7.40;65.90;;;;;;2085684;28;20033;-73
2020/12/05 04:20:52;;;;;;;9.07;6.10;;;7.40;66.00;;;;;;2080445;28;20408;-72
2020/12/05 04:21:52;;;;;;;8.60;6.80;;;7.40;66.00;;;;;;2081580;28;20467;-72
2020/12/05 04:22:54;;;;;;;9.10;6.63;;;7.40;66.00;;;;;;2085145;28;20025;-72
2020/12/05 04:23:55;;;;;;;9.60;6.65;;;7.40;66.00;;;;;;2084512;28;20021;-72
2020/12/05 04:24:55;;;;;;;10.93;6.57;;;7.40;66.00;;;;;;2084880;28;20093;-72
2020/12/05 04:25:56;;;;;;;10.52;7.07;;;7.40;66.00;;;;;;2085286;28;20444;-73
2020/12/05 04:26:57;;;;;;;11.20;7.00;;;7.40;66.00;;;;;;2076185;28;20033;-72
2020/12/05 04:27:58;;;;;;;12.52;7.63;;;7.40;66.00;;;;;;2068148;28;20115;-73
2020/12/05 04:28:58;;;;;;;12.15;6.97;;;7.40;66.00;;;;;;2071163;28;20089;-72
2020/12/05 04:29:59;;;;;;;10.02;6.97;;;7.40;66.00;;;;;;2083427;28;20084;-72
2020/12/05 04:30:59;;;;;;;12.73;7.82;;;7.40;66.00;;;;;;2084588;28;20499;-72
2020/12/05 04:32:00;;;;;;;11.43;7.50;;;7.40;66.00;;;;;;2085159;28;20037;-72
2020/12/05 04:33:00;;;;;;;11.55;8.02;;;7.30;65.90;;;;;;2083881;28;20346;-72
2020/12/05 04:34:01;;;;;;;12.13;6.80;;;7.30;65.90;;;;;;2084520;28;20029;-73
2020/12/05 04:35:02;;;;;;;9.95;7.32;;;7.30;65.90;;;;;;2084942;28;20028;-73
2020/12/05 04:36:03;;;;;;;10.25;7.10;;;7.30;65.90;;;;;;2076510;28;20037;-73
2020/12/05 04:37:04;;;;;;;9.45;6.95;;;7.30;65.90;;;;;;2075758;28;20376;-72
2020/12/05 04:38:04;;;;;;;11.70;6.57;;;7.40;66.00;;;;;;2085662;28;20092;-72
2020/12/05 04:39:05;;;;;;;10.15;6.53;;;7.30;65.90;;;;;;2085249;28;20033;-73
2020/12/05 04:40:05;;;;;;;10.23;6.63;;;7.30;65.90;;;;;;2076092;28;20018;-72
2020/12/05 04:41:06;;;;;;;6.97;5.95;;;7.30;65.90;;;;;;2076477;28;20025;-72
2020/12/05 04:42:07;;;;;;;7.95;6.78;;;7.30;65.90;;;;;;2084482;28;20112;-73
2020/12/05 04:43:08;;;;;;;7.53;6.07;;;7.30;65.90;;;;;;2084535;28;20486;-73
2020/12/05 04:44:09;;;;;;;8.55;6.18;;;7.30;65.90;;;;;;2084963;28;20093;-73
2020/12/05 04:45:10;;;;;;;9.32;6.50;;;7.30;65.90;;;;;;2084847;28;20036;-73
2020/12/05 04:46:12;;;;;;;9.18;6.43;;;7.30;66.00;;;;;;2075884;28;20527;-73
2020/12/05 04:47:14;;;;;;;8.80;6.13;;;7.30;66.00;;;;;;2071639;28;20111;-72
2020/12/05 04:48:16;;;;;;;8.43;6.30;;;7.30;66.10;;;;;;2076341;28;20141;-72
2020/12/05 04:49:17;;;;;;;6.80;5.90;;;7.30;66.00;;;;;;2084725;28;20352;-73
2020/12/05 04:50:20;;;;;;;7.57;6.40;;;7.30;66.00;;;;;;2084342;28;20029;-73
2020/12/05 04:51:21;;;;;;;7.65;6.00;;;7.30;66.00;;;;;;2083557;28;20029;-72
2020/12/05 04:52:23;;;;;;;9.77;6.43;;;7.30;66.00;;;;;;2084568;28;20470;-73
2020/12/05 04:53:24;;;;;;;6.60;5.90;;;7.30;66.00;;;;;;2084902;28;20017;-74
2020/12/05 04:54:26;;;;;;;10.73;6.53;;;7.30;65.90;;;;;;2084864;28;20029;-72
2020/12/05 04:55:30;;;;;;;9.23;6.72;;;7.20;65.90;;;;;;2084605;28;20040;-73
2020/12/05 04:56:40;;;;;;;9.18;6.78;;;7.30;65.90;;;;;;2084892;28;20579;-72
2020/12/05 04:57:46;;;;;;;7.60;6.85;;;7.30;66.00;;;;;;2084362;28;20351;-74
2020/12/05 04:58:48;;;;;;;9.20;5.93;;;7.30;65.90;;;;;;2084291;28;20072;-73
2020/12/05 04:59:50;;;;;;;11.05;6.50;;;7.30;65.70;;;;;;2085480;28;20546;-73
2020/12/05 05:00:52;;;;;;;11.35;6.80;;;7.20;65.60;;;;;;2084399;28;20021;-74
2020/12/05 05:01:57;;;;;;;10.00;7.03;;;7.30;65.70;;;;;;2084104;28;20025;-73
2020/12/05 05:02:58;;;;;;;11.10;6.30;;;7.20;65.60;;;;;;2084139;28;20036;-73
2020/12/05 05:04:00;;;;;;;11.40;6.82;;;7.20;65.60;;;;;;2084925;28;20032;-73
2020/12/05 05:05:01;;;;;;;8.30;6.10;;;7.20;65.60;;;;;;2084615;28;20025;-73
2020/12/05 05:06:01;;;;;;;7.75;6.30;;;7.20;65.60;;;;;;2084206;28;20112;-73
2020/12/05 05:07:05;;;;;;;8.55;6.25;;;7.20;65.60;;;;;;2083372;28;20386;-74
2020/12/05 05:08:05;;;;;;;7.78;6.57;;;7.20;65.60;;;;;;2083233;28;20447;-72
2020/12/05 05:09:06;;;;;;;9.85;6.40;;;7.20;65.60;;;;;;2076961;28;20038;-73
2020/12/05 05:10:16;;;;;;;7.00;6.00;;;7.20;65.60;;;;;;2082534;28;20068;-73
2020/12/05 05:11:18;;;;;;;7.63;6.65;;;7.20;65.60;;;;;;2074934;28;20142;-73
2020/12/05 05:12:32;;;;;;;6.72;5.80;;;7.20;65.60;;;;;;2073849;28;20349;-73
2020/12/05 05:13:54;;;;;;;8.80;5.75;;;7.10;65.60;;;;;;2084161;28;20431;-74
2020/12/05 05:14:55;;;;;;;6.18;5.15;;;7.10;65.60;;;;;;2081182;28;20513;-75
2020/12/05 05:15:55;;;;;;;6.57;5.60;;;7.10;65.50;;;;;;2081602;28;20047;-74
2020/12/05 05:17:06;;;;;;;7.38;5.35;;;7.10;65.40;;;;;;2072446;28;20040;-74
2020/12/05 05:18:07;;;;;;;8.32;5.88;;;7.10;65.60;;;;;;2074251;28;20113;-73
2020/12/05 05:19:22;;;;;;;6.82;5.57;;;7.10;65.40;;;;;;2075051;28;20041;-73
2020/12/05 05:20:22;;;;;;;9.00;6.13;;;7.10;65.60;;;;;;2075516;28;20081;-74
2020/12/05 05:21:39;;;;;;;7.20;5.75;;;7.10;65.40;;;;;;2074426;28;20025;-75
2020/12/05 05:22:40;;;;;;;5.82;5.30;;;7.10;65.60;;;;;;2082199;28;20025;-74
2020/12/05 05:23:42;;;;;;;6.25;5.43;;;7.00;65.40;;;;;;2081135;28;20548;-74